Météo

Actualisé à 8h30, Lille

icon

T : 6 °C / H : 81 %
Pression : 1023 Hpa
Vent de nord-ouest : 24 Km/h
Faible Pluie
Nuages épars à 2200 pieds
Nuages fragmentés à 3000 pieds

2024/04/21 07:30 LFQQ 210730Z AUTO 33013KT 9999 -RA SCT022/// BKN030/// BKN037/// ///TCU 06/03 Q1023 TEMPO 34018G28KT 2500 SHRA SCT009 BKN014TCU

Mots clés

Internet web infographiste flyers illustrateur graphiste webmaster PAO assistance informatique logo image invitation affiche création réalisation conception site vitrine voeux carte visite publication publicité impression plaquette charte graphique identité visuelle maintenance freelance


CSS Valide ! Valid HTML 5.0
callicom.gif flo.jpg
logo-5.jpg logo.jpg
logo_Flodp2.jpg logo_les-dauphines-de-fretin1_couleur-Nb.jpg
sofetec.jpg